createdAt,value
2016-09-14T00:00:28.219Z,64.43
2016-09-14T00:01:41.144Z,64.56
2016-09-14T00:02:26.718Z,65.2
2016-09-14T00:03:26.944Z,65.2
2016-09-14T00:04:27.056Z,64.75
2016-09-14T00:05:26.414Z,64.85
2016-09-14T00:06:26.047Z,64.07
2016-09-14T00:07:27.684Z,64.27
2016-09-14T00:08:26.778Z,64.17
2016-09-14T00:09:26.649Z,63.49
2016-09-14T00:10:26.394Z,63.69
2016-09-14T00:11:26.633Z,64.17
2016-09-14T00:12:40.622Z,63.4
2016-09-14T00:13:26.248Z,62.91
2016-09-14T00:14:26.390Z,62.75
2016-09-14T00:15:25.843Z,62.85
2016-09-14T00:16:27.195Z,62.36
2016-09-14T00:17:26.492Z,62.55
2016-09-14T00:18:26.152Z,62.95
2016-09-14T00:19:26.242Z,63.1
2016-09-14T00:20:26.845Z,63.49
2016-09-14T00:21:27.112Z,63.1
2016-09-14T00:22:26.498Z,62.95
2016-09-14T00:23:27.210Z,62.26
2016-09-14T00:24:26.422Z,62.36
2016-09-14T00:25:41.187Z,62.85
2016-09-14T00:26:26.483Z,62.91
2016-09-14T00:27:40.374Z,63.49
2016-09-14T00:28:25.625Z,63.4
2016-09-14T00:29:40.226Z,63.69
2016-09-14T00:30:26.239Z,64.43
2016-09-14T00:31:25.467Z,64.53
2016-09-14T00:32:25.443Z,63.85
2016-09-14T00:33:25.442Z,64.14
2016-09-14T00:34:26.580Z,64.62
2016-09-14T00:35:25.366Z,64.53
2016-09-14T00:36:32.776Z,64.04
2016-09-14T00:37:26.230Z,64.98
2016-09-14T00:38:40.077Z,65.56
2016-09-14T00:39:25.620Z,66.14
2016-09-14T00:40:26.723Z,65.75
2016-09-14T00:41:25.489Z,66.14
2016-09-14T00:42:26.079Z,65.56
2016-09-14T00:43:25.546Z,65.37
2016-09-14T00:44:25.962Z,65.66
2016-09-14T00:45:25.358Z,65.56
2016-09-14T00:46:25.426Z,65.47
2016-09-14T00:47:25.931Z,65.37
2016-09-14T00:48:25.076Z,65.27
2016-09-14T00:49:25.614Z,65.27
2016-09-14T00:50:25.473Z,66.14
2016-09-14T00:51:26.236Z,65.95
2016-09-14T00:52:25.585Z,65.95
2016-09-14T00:53:39.934Z,65.95
2016-09-14T00:54:25.848Z,65.47
2016-09-14T00:55:26.470Z,65.37
2016-09-14T00:56:25.707Z,64.89
2016-09-14T00:57:25.153Z,64.24
2016-09-14T00:59:25.280Z,64.24
2016-09-14T01:00:39.681Z,64.43
2016-09-14T01:01:25.047Z,65.17
2016-09-14T01:02:25.030Z,65.56
2016-09-14T01:03:24.744Z,64.98
2016-09-14T01:04:24.722Z,65.47
2016-09-14T01:05:24.698Z,65.95
2016-09-14T01:06:24.687Z,65.95
2016-09-14T01:07:24.679Z,65.95
2016-09-14T01:08:24.656Z,66.14
2016-09-14T01:09:24.611Z,66.78
2016-09-14T01:10:25.339Z,66.4
2016-09-14T01:11:24.578Z,66.5
2016-09-14T01:12:24.573Z,66.78
2016-09-14T01:13:24.523Z,66.5
2016-09-14T01:14:24.538Z,66.4
2016-09-14T01:15:24.480Z,66.69
2016-09-14T01:16:24.813Z,66.88
2016-09-14T01:17:24.470Z,66.98
2016-09-14T01:18:24.397Z,66.69
2016-09-14T01:19:31.120Z,66.4
2016-09-14T01:20:25.888Z,65.95
2016-09-14T01:21:24.364Z,66.14
2016-09-14T01:22:24.319Z,65.95
2016-09-14T01:23:24.827Z,66.24
2016-09-14T01:24:24.952Z,65.27
2016-09-14T01:25:24.321Z,65.37
2016-09-14T01:26:24.219Z,64.98
2016-09-14T01:27:24.666Z,64.5
2016-09-14T01:28:24.290Z,64.24
2016-09-14T01:29:24.750Z,64.62
2016-09-14T01:30:24.629Z,64.14
2016-09-14T01:31:25.971Z,64.34
2016-09-14T01:32:24.128Z,64.53
2016-09-14T01:33:24.363Z,65.37
2016-09-14T01:34:24.090Z,65.56
2016-09-14T01:35:25.220Z,65.95
2016-09-14T01:36:24.853Z,65.37
2016-09-14T01:37:24.094Z,65.56
2016-09-14T01:38:24.248Z,64.89
2016-09-14T01:39:24.179Z,65.27
2016-09-14T01:40:23.913Z,65.56
2016-09-14T01:41:23.980Z,65.66
2016-09-14T01:42:23.865Z,65.56
2016-09-14T01:43:24.379Z,65.47
2016-09-14T01:44:23.813Z,65.27
2016-09-14T01:45:23.901Z,65.27
2016-09-14T01:46:23.794Z,66.14
2016-09-14T01:47:24.652Z,65.95
2016-09-14T01:48:24.098Z,66.11
2016-09-14T01:49:23.731Z,66.11
2016-09-14T01:50:23.687Z,66.02
2016-09-14T01:51:23.689Z,66.11
2016-09-14T01:52:23.635Z,66.5
2016-09-14T01:53:23.622Z,66.6
2016-09-14T01:54:23.593Z,65.82
2016-09-14T01:55:23.576Z,65.82
2016-09-14T01:56:24.566Z,65.82
2016-09-14T01:57:23.640Z,66.88
2016-09-14T01:58:23.516Z,65.92
2016-09-14T01:59:23.947Z,66.02
2016-09-14T02:00:23.837Z,65.37
2016-09-14T02:01:23.428Z,64.98
2016-09-14T02:02:23.412Z,64.69
2016-09-14T02:03:23.388Z,64.4
2016-09-14T02:04:29.361Z,64.14
2016-09-14T02:05:23.714Z,63.85
2016-09-14T02:07:23.332Z,64.59
2016-09-14T02:08:37.996Z,65.27
2016-09-14T02:09:23.244Z,64.69
2016-09-14T02:10:37.944Z,65.08
2016-09-14T02:11:23.215Z,65.56
2016-09-14T02:12:23.488Z,66.24
2016-09-14T02:13:23.574Z,65.92
2016-09-14T02:14:23.916Z,66.02
2016-09-14T02:15:23.328Z,66.2
2016-09-14T02:16:23.097Z,65.92
2016-09-14T02:17:23.115Z,65.53
2016-09-14T02:18:23.060Z,64.69
2016-09-14T02:20:23.055Z,64.5
2016-09-14T02:21:22.972Z,64.5
2016-09-14T02:22:22.971Z,64.69
2016-09-14T02:23:22.946Z,64.4
2016-09-14T02:24:22.905Z,63.82
2016-09-14T02:25:22.877Z,64.01
2016-09-14T02:26:22.859Z,64.4
2016-09-14T02:27:22.836Z,64.2
2016-09-14T02:28:22.812Z,64.5
2016-09-14T02:29:23.270Z,63.92
2016-09-14T02:30:22.771Z,63.92
2016-09-14T02:31:22.750Z,64.4
2016-09-14T02:32:23.097Z,64.5
2016-09-14T02:33:22.714Z,64.59
2016-09-14T02:34:22.702Z,64.98
2016-09-14T02:35:22.738Z,65.53
2016-09-14T02:36:22.640Z,65.24
2016-09-14T02:37:22.707Z,65.63
2016-09-14T02:38:23.091Z,65.05
2016-09-14T02:39:22.571Z,65.43
2016-09-14T02:40:22.626Z,65.34
2016-09-14T02:41:22.516Z,65.92
2016-09-14T02:42:22.521Z,65.82
2016-09-14T02:43:22.484Z,65.63
2016-09-14T02:44:22.453Z,64.37
2016-09-14T02:45:22.441Z,63.62
2016-09-14T02:46:22.420Z,64.01
2016-09-14T02:47:22.770Z,64.11
2016-09-14T02:48:22.377Z,64.01
2016-09-14T02:49:22.458Z,64.59
2016-09-14T02:50:22.565Z,63.82
2016-09-14T02:51:23.221Z,64.3
2016-09-14T02:52:22.269Z,63.72
2016-09-14T02:53:23.124Z,63.72
2016-09-14T02:54:22.784Z,63.34
2016-09-14T02:55:22.654Z,64.01
2016-09-14T02:56:23.132Z,63.92
2016-09-14T02:57:22.174Z,64.95
2016-09-14T02:58:22.238Z,65.43
2016-09-14T02:59:23.623Z,65.88
2016-09-14T03:00:36.796Z,65.63
2016-09-14T03:01:22.627Z,65.88
2016-09-14T03:02:22.804Z,65.98
2016-09-14T03:03:22.176Z,65.88
2016-09-14T03:04:22.069Z,65.69
2016-09-14T03:05:22.705Z,65.88
2016-09-14T03:06:21.989Z,65.98
2016-09-14T03:07:21.965Z,66.37
2016-09-14T03:08:21.929Z,65.3
2016-09-14T03:09:21.886Z,65.34
2016-09-14T03:10:22.904Z,65.34
2016-09-14T03:11:23.162Z,66.11
2016-09-14T03:12:22.583Z,65.53
2016-09-14T03:13:21.876Z,66.08
2016-09-14T03:14:21.800Z,65.88
2016-09-14T03:15:21.877Z,65.92
2016-09-14T03:16:21.774Z,66.02
2016-09-14T03:17:21.736Z,65.69
2016-09-14T03:18:21.675Z,65.88
2016-09-14T03:19:21.673Z,65.69
2016-09-14T03:20:21.771Z,65.11
2016-09-14T03:21:21.625Z,65.34
2016-09-14T03:22:21.785Z,65.82
2016-09-14T03:23:21.907Z,66.08
2016-09-14T03:24:21.908Z,66.95
2016-09-14T03:25:21.515Z,66.47
2016-09-14T03:26:21.559Z,65.69
2016-09-14T03:27:24.033Z,65.88
2016-09-14T03:28:21.793Z,65.98
2016-09-14T03:29:23.245Z,66.27
2016-09-14T03:31:23.013Z,66.27
2016-09-14T03:32:22.384Z,66.47
2016-09-14T03:33:22.564Z,66.08
2016-09-14T03:34:21.809Z,65.88
2016-09-14T03:35:22.238Z,65.11
2016-09-14T03:36:22.971Z,65.14
2016-09-14T03:37:22.069Z,64.85
2016-09-14T03:38:21.668Z,64.95
2016-09-14T03:39:22.169Z,66.08
2016-09-14T03:40:21.406Z,65.79
2016-09-14T03:41:21.396Z,66.56
2016-09-14T03:42:21.528Z,66.17
2016-09-14T03:43:22.404Z,65.59
2016-09-14T03:44:21.532Z,65.14
2016-09-14T03:45:21.631Z,64.53
2016-09-14T03:46:21.889Z,64.07
2016-09-14T03:47:21.089Z,64.47
2016-09-14T03:48:21.798Z,64.75
2016-09-14T03:49:21.169Z,65.43
2016-09-14T03:50:21.164Z,65.3
2016-09-14T03:51:21.981Z,65.3
2016-09-14T03:52:21.328Z,65.59
2016-09-14T03:53:21.784Z,66.53
2016-09-14T03:54:22.083Z,66.43
2016-09-14T03:55:21.710Z,66.43
2016-09-14T03:56:21.853Z,67.4
2016-09-14T03:57:21.693Z,67.3
2016-09-14T03:58:21.229Z,67.88
2016-09-14T03:59:21.147Z,66.53
2016-09-14T04:00:21.217Z,66.75
2016-09-14T04:01:20.825Z,66.05
2016-09-14T14:47:31.380Z,38.78
2016-09-14T14:48:30.291Z,38.59
2016-09-14T14:49:30.275Z,38.68
2016-09-14T14:50:30.216Z,38.2
2016-09-14T14:51:30.186Z,37.63
2016-09-14T14:53:30.195Z,37.45
2016-09-14T14:54:30.133Z,37.54
2016-09-14T14:55:30.110Z,36.66
2016-09-14T14:56:30.125Z,37.17
2016-09-14T14:57:30.081Z,37.15
2016-09-14T14:58:30.092Z,37.04
2016-09-14T14:59:30.048Z,37.04
2016-09-14T15:00:30.105Z,36.94
2016-09-14T15:01:30.173Z,36.74
2016-09-14T15:02:30.061Z,37.04
2016-09-14T15:03:29.997Z,37.13
2016-09-14T15:04:30.092Z,37.43
2016-09-14T15:05:29.959Z,37.43
2016-09-14T15:06:29.913Z,37.71
2016-09-14T15:07:29.890Z,37.9
2016-09-14T15:08:29.895Z,37.31
2016-09-14T15:09:29.900Z,37.43
2016-09-14T15:10:44.574Z,37.61
2016-09-14T15:11:30.567Z,37.12
2016-09-14T15:12:30.175Z,38.02
2016-09-14T15:13:29.789Z,37.82
2016-09-14T15:14:29.796Z,37.71
2016-09-14T15:15:29.799Z,37.41
2016-09-14T15:16:30.217Z,37.71
2016-09-14T15:17:29.745Z,38.29
2016-09-14T15:18:29.709Z,38.47
2016-09-14T15:19:29.678Z,38.37
2016-09-14T15:20:30.489Z,38.47
2016-09-14T15:22:29.647Z,38.18
2016-09-14T15:23:44.628Z,38.28
2016-09-14T15:24:29.600Z,37.69
2016-09-14T15:25:29.581Z,38.47
2016-09-14T15:26:29.557Z,38.28
2016-09-14T15:27:29.639Z,38.47
2016-09-14T15:28:29.534Z,38.08
2016-09-14T15:29:29.535Z,38
2016-09-14T15:30:29.480Z,37.41
2016-09-14T15:31:29.521Z,37.12
2016-09-14T15:32:29.434Z,37.41
2016-09-14T15:33:29.882Z,36.63
2016-09-14T15:34:29.527Z,37.31
2016-09-14T15:35:29.392Z,37.61
2016-09-14T15:36:44.099Z,37.21
2016-09-14T15:37:29.354Z,37.51
2016-09-14T15:38:44.043Z,37.41
2016-09-14T15:39:29.302Z,37.41
2016-09-14T15:40:43.996Z,38
2016-09-14T15:41:29.259Z,37.59
2016-09-14T15:42:29.284Z,37.31
2016-09-14T15:43:29.268Z,37.51
2016-09-14T15:44:29.544Z,37.21
2016-09-14T15:45:29.259Z,37.61
2016-09-14T15:46:29.254Z,37.59
2016-09-14T15:47:29.154Z,37.9
2016-09-14T15:48:29.149Z,37.98
2016-09-14T15:49:29.524Z,37.69
2016-09-14T15:50:29.279Z,38
2016-09-14T15:51:29.174Z,38.47
2016-09-14T15:52:29.097Z,38.45
2016-09-14T15:53:29.088Z,38.47
2016-09-14T15:54:29.360Z,38.65
2016-09-14T15:55:29.044Z,38.94
2016-09-14T15:56:29.111Z,39.23
2016-09-14T15:58:29.033Z,38.65
2016-09-14T15:59:29.033Z,39.04
2016-09-14T16:00:28.913Z,38.84
2016-09-14T16:04:29.165Z,39.14
2016-09-14T16:05:29.056Z,39.22
2016-09-14T16:07:29.042Z,39.12
2016-09-14T16:09:28.930Z,39.02
2016-09-14T16:10:28.900Z,39.31
2016-09-14T16:11:28.697Z,39.69
2016-09-14T16:12:28.961Z,39.59
2016-09-14T16:13:28.835Z,39.98
2016-09-14T16:14:29.228Z,39.9
2016-09-14T16:15:29.037Z,40.08
2016-09-14T16:16:29.308Z,39.88
2016-09-14T16:17:28.628Z,40.27
2016-09-14T16:18:29.268Z,40.27
2016-09-14T16:19:28.609Z,40.08
2016-09-14T16:20:28.539Z,39.98
2016-09-14T16:21:28.578Z,40.08
2016-09-14T16:22:28.576Z,40.09
2016-09-14T16:23:28.492Z,40.27
2016-09-14T16:24:28.507Z,40.19
2016-09-14T16:25:28.472Z,40.09
2016-09-14T16:26:28.497Z,40.17
2016-09-14T16:27:28.502Z,40.09
2016-09-14T16:28:28.387Z,40
2016-09-14T16:29:28.391Z,40.48
2016-09-14T16:30:28.359Z,40.17
2016-09-14T16:31:43.037Z,40.09
2016-09-14T16:32:28.304Z,40.09
2016-09-14T16:33:28.285Z,40.27
2016-09-14T16:34:28.275Z,40
2016-09-14T16:35:28.263Z,39.9
2016-09-14T16:36:28.233Z,39.8
2016-09-14T16:37:28.271Z,39.7
2016-09-14T16:38:28.625Z,40
2016-09-14T16:39:28.191Z,39.8
2016-09-14T16:40:28.184Z,39.9
2016-09-14T16:41:28.369Z,40
2016-09-14T16:42:28.130Z,39.51
2016-09-14T16:43:28.138Z,39.53
2016-09-14T16:44:42.799Z,39.82
2016-09-14T16:45:28.482Z,40.19
2016-09-14T16:46:28.087Z,40.48
2016-09-14T16:47:28.031Z,40.58
2016-09-14T16:48:28.026Z,40.47
2016-09-14T16:49:28.015Z,40.27
2016-09-14T16:50:27.967Z,40.47
2016-09-14T16:51:27.946Z,41.44
2016-09-14T16:52:27.977Z,41.23
2016-09-14T16:53:28.498Z,41.82
2016-09-14T16:54:27.940Z,42.21
2016-09-14T16:55:28.792Z,42.5
2016-09-14T16:56:27.879Z,42.58
2016-09-14T16:57:27.840Z,43.36
2016-09-14T16:58:27.812Z,44.12
2016-09-14T16:59:27.792Z,44.21
2016-09-14T17:00:27.775Z,43.73
2016-09-14T17:01:27.875Z,43.82
2016-09-14T17:02:27.728Z,44.12
2016-09-14T17:03:27.711Z,43.63
2016-09-14T17:04:27.702Z,43.82
2016-09-14T17:05:27.689Z,44.92
2016-09-14T17:06:27.700Z,44.31
2016-09-14T17:07:27.635Z,44.51
2016-09-14T17:08:27.611Z,45.09
2016-09-14T17:09:27.646Z,44.97
2016-09-14T17:10:27.580Z,45.65
2016-09-14T17:11:27.556Z,45.46
2016-09-14T17:12:27.549Z,45.36
2016-09-14T17:13:27.525Z,45.36
2016-09-14T17:14:27.645Z,45.75
2016-09-14T17:15:27.476Z,46.14
2016-09-14T17:16:42.220Z,46.73
2016-09-14T17:17:27.767Z,46.7
2016-09-14T17:18:27.440Z,46.8
2016-09-14T17:19:27.493Z,46.41
2016-09-14T17:20:27.377Z,46.02
2016-09-14T17:21:30.421Z,46.8
2016-09-14T17:22:27.352Z,47.68
2016-09-14T17:23:42.174Z,46.69
2016-09-14T17:24:27.351Z,47.09
2016-09-14T17:25:27.320Z,47.56
2016-09-14T17:26:27.251Z,47.07
2016-09-14T17:27:27.243Z,47.56
2016-09-14T17:28:27.213Z,47.68
2016-09-14T17:29:27.221Z,47.46
2016-09-14T17:30:29.155Z,47.75
2016-09-14T17:31:27.166Z,47.85
2016-09-14T17:32:27.146Z,47.95
2016-09-14T17:33:27.135Z,48.05
2016-09-14T17:34:27.128Z,47.75
2016-09-14T17:35:27.086Z,48.34
2016-09-14T17:36:27.149Z,48.05
2016-09-14T17:37:27.071Z,47.85
2016-09-14T17:38:27.029Z,48.05
2016-09-14T17:39:27.014Z,47.85
2016-09-14T17:40:27.097Z,48.34
2016-09-14T17:41:26.970Z,48.34
2016-09-14T17:42:26.946Z,48.44
2016-09-14T17:43:26.989Z,48.34
2016-09-14T17:44:26.895Z,48.54
2016-09-14T17:45:26.871Z,48.83
2016-09-14T17:46:26.884Z,48.24
2016-09-14T17:47:26.881Z,48.44
2016-09-14T17:48:26.823Z,48.34
2016-09-14T17:49:26.800Z,48.14
2016-09-14T17:50:27.492Z,48.14
2016-09-14T17:51:26.777Z,48.05
2016-09-14T17:52:35.678Z,48.34
2016-09-14T17:53:26.751Z,48.34
2016-09-14T17:55:26.704Z,48.14
2016-09-14T17:56:26.661Z,48.34
2016-09-14T17:57:26.639Z,48.54
2016-09-14T17:58:26.659Z,48.73
2016-09-14T17:59:26.628Z,49.02
2016-09-14T18:00:26.590Z,48.83
2016-09-14T18:01:26.621Z,48.34
2016-09-14T18:02:26.552Z,48.93
2016-09-14T18:03:26.528Z,48.83
2016-09-14T18:04:26.558Z,48.83
2016-09-14T18:06:26.486Z,47.97
2016-09-14T18:08:26.478Z,48.27
2016-09-14T18:09:26.771Z,48.27
2016-09-14T18:10:26.423Z,48.85
2016-09-14T18:11:27.172Z,48.36
2016-09-14T18:12:26.399Z,48.46
2016-09-14T18:13:26.346Z,48.36
2016-09-14T18:14:27.016Z,47.88
2016-09-14T18:15:26.516Z,47.71
2016-09-14T18:16:26.265Z,48
2016-09-14T18:17:26.555Z,47.51
2016-09-14T18:18:26.263Z,47.71
2016-09-14T18:19:26.239Z,47.31
2016-09-14T18:20:26.290Z,48.1
2016-09-14T18:21:40.893Z,47.97
2016-09-14T18:22:26.206Z,47.8
2016-09-14T18:23:26.296Z,47.8
2016-09-14T18:24:26.117Z,48.39
2016-09-14T18:25:26.119Z,48.39
2016-09-14T18:26:26.256Z,47.9
2016-09-14T18:27:26.064Z,47.9
2016-09-14T18:28:26.032Z,48
2016-09-14T18:29:26.194Z,48.19
2016-09-14T18:30:26.473Z,48.39
2016-09-14T18:31:25.970Z,48.88
2016-09-14T18:32:25.959Z,48.39
2016-09-14T18:33:25.956Z,47.8
2016-09-14T18:34:40.932Z,48
2016-09-14T18:35:25.926Z,48.1
2016-09-14T18:36:40.609Z,47.9
2016-09-14T18:37:25.891Z,48
2016-09-14T18:38:25.851Z,48.29
2016-09-14T18:39:25.819Z,48.85
2016-09-14T18:40:25.814Z,48.75
2016-09-14T18:41:25.782Z,48.85
2016-09-14T18:42:25.762Z,48.75
2016-09-14T18:43:25.847Z,48.75
2016-09-14T18:44:25.827Z,48.36
2016-09-14T18:45:25.727Z,49.24
2016-09-14T18:46:25.690Z,49.34
2016-09-14T18:47:40.371Z,49.44
2016-09-14T18:48:26.134Z,49.54
2016-09-14T18:49:25.655Z,49.99
2016-09-14T18:50:26.073Z,50.29
2016-09-14T18:51:25.778Z,49.61
2016-09-14T18:52:25.790Z,49.41
2016-09-14T18:53:25.640Z,49.15
2016-09-14T18:54:25.546Z,48.95
2016-09-14T18:55:25.502Z,48.85
2016-09-14T18:56:25.551Z,47.97
2016-09-14T18:57:25.464Z,48.39
2016-09-14T18:58:32.065Z,48.36
2016-09-14T18:59:25.434Z,48.17
2016-09-14T19:00:40.660Z,48.75
2016-09-14T19:01:25.389Z,48.75
2016-09-14T19:02:25.364Z,48.75
2016-09-14T19:03:25.714Z,48.75
2016-09-14T19:04:25.315Z,49.44
2016-09-14T19:05:25.580Z,49.61
2016-09-14T19:06:25.293Z,49.41
2016-09-14T19:07:25.315Z,49.22
2016-09-14T19:08:25.248Z,49.15
2016-09-14T19:09:25.223Z,49.22
2016-09-14T19:10:25.224Z,49.32
2016-09-14T19:11:25.178Z,49.12
2016-09-14T19:12:25.157Z,49.22
2016-09-14T19:13:25.149Z,49.22
2016-09-14T19:14:25.155Z,49.41
2016-09-14T19:15:25.142Z,49.41
2016-09-14T19:16:25.467Z,49.61
2016-09-14T19:17:25.073Z,49.71
2016-09-14T19:18:25.059Z,49.88
2016-09-14T19:19:25.048Z,49.97
2016-09-14T19:21:25.590Z,50.46
2016-09-14T19:22:25.293Z,50.36
2016-09-14T19:23:24.980Z,50.36
2016-09-14T19:24:24.961Z,50.16
2016-09-14T19:25:24.993Z,50.26
2016-09-14T19:26:25.081Z,50.26
2016-09-14T19:27:39.574Z,49.68
2016-09-14T19:28:24.843Z,49.97
2016-09-14T19:29:26.076Z,50.36
2016-09-14T19:30:24.830Z,50.07
2016-09-14T19:31:24.803Z,49.97
2016-09-14T19:32:24.778Z,50.26
2016-09-14T19:33:25.166Z,51.51
2016-09-14T19:34:24.790Z,51.77
2016-09-14T19:35:24.908Z,51.21
2016-09-14T19:36:39.400Z,50.92
2016-09-14T19:37:24.773Z,50.63
2016-09-14T19:38:24.664Z,50.82
2016-09-14T19:39:24.622Z,51.51
2016-09-14T19:40:25.292Z,51.7
2016-09-14T19:41:24.612Z,51.02
2016-09-14T19:42:24.581Z,50.34
2016-09-14T19:43:39.269Z,50.63
2016-09-14T19:44:24.543Z,50.73
2016-09-14T19:45:25.231Z,50.82
2016-09-14T19:46:24.888Z,50.75
2016-09-14T19:47:24.943Z,50.82
2016-09-14T19:48:24.778Z,50.53
2016-09-14T19:49:24.523Z,50.75
2016-09-14T19:50:24.412Z,50.92
2016-09-14T19:51:24.888Z,50.82
2016-09-14T19:52:25.087Z,50.53
2016-09-14T19:53:24.335Z,50.63
2016-09-14T19:54:24.692Z,50.92
2016-09-14T19:55:24.290Z,51.61
2016-09-14T19:56:24.321Z,51.51
2016-09-14T19:57:34.528Z,51.31
2016-09-14T19:58:24.249Z,51.39
2016-09-14T19:59:24.446Z,52.26
2016-09-14T20:00:24.279Z,52.84
2016-09-14T20:01:24.248Z,52.43
2016-09-14T20:02:24.140Z,52.06
2016-09-14T20:03:24.140Z,51.48
2016-09-14T20:04:24.117Z,52.36
2016-09-14T20:05:24.221Z,51.87
2016-09-14T20:06:24.248Z,51.97
2016-09-14T20:07:24.131Z,51.97
2016-09-14T20:08:24.035Z,52.45
2016-09-14T20:09:23.989Z,52.75
2016-09-14T20:10:23.993Z,51.87
2016-09-14T20:11:23.962Z,51.97
2016-09-14T20:12:24.300Z,53.14
2016-09-14T20:13:23.908Z,52.92
2016-09-14T20:14:24.268Z,53.3
2016-09-14T20:15:23.892Z,53.01
2016-09-14T20:16:23.912Z,53.2
2016-09-14T20:17:23.871Z,51.97
2016-09-14T20:18:38.536Z,51.48
2016-09-14T20:19:23.801Z,51.58
2016-09-14T20:20:23.789Z,52.06
2016-09-14T20:21:23.798Z,51.87
2016-09-14T20:22:23.739Z,52.33
2016-09-14T20:23:23.727Z,53.01
2016-09-14T20:24:23.805Z,53.11
2016-09-14T20:25:23.682Z,52.92
2016-09-14T20:26:23.649Z,52.82
2016-09-14T20:27:23.618Z,52.72
2016-09-14T20:28:23.617Z,53.11
2016-09-14T20:29:23.991Z,53.47
2016-09-14T20:30:23.561Z,53.67
2016-09-14T20:31:23.622Z,53.28
2016-09-14T20:32:23.550Z,53.08
2016-09-14T20:33:23.512Z,53.2
2016-09-14T20:34:38.491Z,53.3
2016-09-14T20:35:23.471Z,53.08
2016-09-14T20:36:23.444Z,52.92
2016-09-14T20:37:23.445Z,53.18
2016-09-14T20:38:23.384Z,53.28
2016-09-14T20:39:23.454Z,53.57
2016-09-14T20:40:23.755Z,53.47
2016-09-14T20:41:23.338Z,54.05
2016-09-14T20:42:23.354Z,53.96
2016-09-14T20:43:23.275Z,54.25
2016-09-14T20:44:23.731Z,54.15
2016-09-14T20:45:37.976Z,54.61
2016-09-14T20:46:23.306Z,55
2016-09-14T20:48:23.238Z,55.85
2016-09-14T20:49:23.186Z,55.85
2016-09-14T20:50:23.611Z,55.85
2016-09-14T20:51:23.151Z,56.07
2016-09-14T20:52:23.485Z,55.85
2016-09-14T20:53:23.562Z,55.94
2016-09-14T20:54:37.767Z,56.43
2016-09-14T20:55:23.050Z,56.04
2016-09-14T20:56:23.117Z,55.46
2016-09-14T20:57:23.003Z,55
2016-09-14T20:58:22.974Z,55.07
2016-09-14T20:59:22.940Z,55.65
2016-09-14T21:00:23.621Z,55.94
2016-09-14T21:01:23.296Z,55.75
2016-09-14T21:02:22.968Z,55.75
2016-09-14T21:03:22.876Z,55.75
2016-09-14T21:04:22.953Z,56.04
2016-09-14T21:05:22.840Z,54.97
2016-09-14T21:06:22.813Z,55.78
2016-09-14T21:07:22.783Z,55.85
2016-09-14T21:08:22.783Z,55.85
2016-09-14T21:09:22.802Z,55.75
2016-09-14T21:10:22.713Z,56.24
2016-09-14T21:11:22.730Z,56.43
2016-09-14T21:12:22.887Z,56.52
2016-09-14T21:13:22.664Z,56.3
2016-09-14T21:14:22.661Z,55.94
2016-09-14T21:15:22.671Z,55.85
2016-09-14T21:16:23.064Z,54.97
2016-09-14T21:17:22.960Z,54.68
2016-09-14T21:18:22.563Z,54.8
2016-09-14T21:19:22.958Z,55.07
2016-09-14T21:20:22.538Z,55.55
2016-09-14T21:21:22.510Z,56.01
2016-09-14T21:22:22.526Z,56.4
2016-09-14T21:23:22.430Z,56.21
2016-09-14T21:24:22.433Z,56.3
2016-09-14T21:25:22.421Z,56.6
2016-09-14T21:26:22.766Z,56.6
2016-09-14T21:28:22.336Z,56.01
2016-09-14T21:29:37.034Z,57.08
2016-09-14T21:30:22.675Z,57.08
2016-09-14T21:31:22.277Z,56.7
2016-09-14T21:32:22.276Z,56.96
2016-09-14T21:33:22.260Z,56.96
2016-09-14T21:34:22.224Z,56.96
2016-09-14T21:35:22.188Z,56.4
2016-09-14T21:36:22.180Z,56.6
2016-09-14T21:37:22.137Z,55.82
2016-09-14T21:38:22.135Z,54.49
2016-09-14T21:39:22.162Z,54.78
2016-09-14T21:40:37.096Z,55.07
2016-09-14T21:41:22.096Z,55.07
2016-09-14T21:42:22.128Z,54.97
2016-09-14T21:43:22.034Z,54.88
2016-09-14T21:44:22.022Z,55.43
2016-09-14T21:45:21.988Z,55.82
2016-09-14T21:46:21.945Z,56.11
2016-09-14T21:47:21.956Z,56.01
2016-09-14T21:48:21.910Z,54.49
2016-09-14T21:49:21.956Z,53.81
2016-09-14T21:50:21.864Z,54.13
2016-09-14T21:51:21.842Z,54.29
2016-09-14T21:52:21.831Z,54.78
2016-09-14T21:53:21.798Z,54.75
2016-09-14T21:54:21.782Z,54.58
2016-09-14T21:55:21.774Z,54.39
2016-09-14T21:56:21.762Z,54.78
2016-09-14T21:57:21.711Z,53.91
2016-09-14T21:58:21.708Z,54
2016-09-14T21:59:21.674Z,54.2
2016-09-14T22:00:21.636Z,54.66
2016-09-14T22:01:21.624Z,54.66
2016-09-14T22:02:21.858Z,54.17
2016-09-14T22:03:21.579Z,54.29
2016-09-14T22:04:21.810Z,54.29
2016-09-14T22:05:21.534Z,54.46
2016-09-14T22:06:21.572Z,55.82
2016-09-14T22:07:21.957Z,56.28
2016-09-14T22:08:21.521Z,56.74
2016-09-14T22:09:26.454Z,57.03
2016-09-14T22:10:21.444Z,56.83
2016-09-14T22:11:21.422Z,57.22
2016-09-14T22:12:21.366Z,57.61
2016-09-14T22:13:21.403Z,57.29
2016-09-14T22:14:21.417Z,57.58
2016-09-14T22:15:21.314Z,57.7
2016-09-14T22:16:21.380Z,57.68
2016-09-14T22:17:21.712Z,58.06
2016-09-14T22:18:21.259Z,58.84
2016-09-14T22:19:21.392Z,58.94
2016-09-14T22:21:21.225Z,58.55
2016-09-14T22:22:21.214Z,58.26
2016-09-14T22:23:21.590Z,57.9
2016-09-14T22:24:21.139Z,57.78
2016-09-14T22:25:21.223Z,57.22
2016-09-14T22:26:21.674Z,57.42
2016-09-14T22:27:21.499Z,57.39
2016-09-14T22:28:21.061Z,57.42
2016-09-14T22:29:21.421Z,57.03
2016-09-14T22:30:21.647Z,56.93
2016-09-14T22:31:20.961Z,57.03
2016-09-14T22:32:21.311Z,56.25
2016-09-14T22:33:20.974Z,55.77
2016-09-14T22:34:20.878Z,54.63
2016-09-14T22:35:20.852Z,55.69
2016-09-14T22:36:21.035Z,55.11
2016-09-14T22:37:21.122Z,55.11
2016-09-14T22:38:21.029Z,54.82
2016-09-14T22:39:21.320Z,54.63
2016-09-14T22:40:20.763Z,54.53
2016-09-14T22:41:21.118Z,54.17
2016-09-14T22:42:20.705Z,54.46
2016-09-14T22:43:20.691Z,54.82
2016-09-14T22:45:20.672Z,55.21
2016-09-14T22:46:35.763Z,54.63
2016-09-14T22:47:20.712Z,54.34
2016-09-14T22:48:20.979Z,54.24
2016-09-14T22:49:20.620Z,54.05
2016-09-14T22:50:20.529Z,54.44
2016-09-14T22:51:20.598Z,54.63
2016-09-14T22:52:20.599Z,54.44
2016-09-14T22:53:20.492Z,54.24
2016-09-14T22:54:20.448Z,54.05
2016-09-14T22:55:35.151Z,54.72
2016-09-14T22:56:20.391Z,54.41
2016-09-14T22:57:20.389Z,55.08
2016-09-14T22:58:20.353Z,54.99
2016-09-14T22:59:20.348Z,55.08
2016-09-14T23:00:21.257Z,54.31
2016-09-14T23:01:20.903Z,54.24
2016-09-14T23:02:20.270Z,54.24
2016-09-14T23:03:20.534Z,53.66
2016-09-14T23:04:20.344Z,53.49
2016-09-14T23:05:20.223Z,53.95
2016-09-14T23:06:20.227Z,53.75
2016-09-14T23:07:20.156Z,53.85
2016-09-14T23:08:20.121Z,54.34
2016-09-14T23:09:20.117Z,54.6
2016-09-14T23:10:20.110Z,54.99
2016-09-14T23:11:20.127Z,55.54
2016-09-14T23:12:20.068Z,55.83
2016-09-14T23:13:20.047Z,55.54
2016-09-14T23:14:20.380Z,55.57
2016-09-14T23:15:20.005Z,55.54
2016-09-14T23:17:20.141Z,54.6
2016-09-14T23:18:20.032Z,54.31
2016-09-14T23:19:20.094Z,54.31
2016-09-14T23:20:19.893Z,54.21
2016-09-14T23:21:20.020Z,54.44
2016-09-14T23:22:20.226Z,54.8
2016-09-14T23:23:19.828Z,54.5
2016-09-14T23:24:19.812Z,55.08
2016-09-14T23:25:20.163Z,55.16
2016-09-14T23:26:19.819Z,55.44
2016-09-14T23:27:19.840Z,55.83
2016-09-14T23:28:20.034Z,55.06
2016-09-14T23:30:20.427Z,55.44
2016-09-14T23:31:19.634Z,55.64
2016-09-14T23:32:19.713Z,55.74
2016-09-14T23:33:20.145Z,55.83
2016-09-14T23:34:19.915Z,55.74
2016-09-14T23:35:19.695Z,55.54
2016-09-14T23:36:19.534Z,55.44
2016-09-14T23:37:19.905Z,55.74
2016-09-14T23:38:19.496Z,55.44
2016-09-14T23:39:19.450Z,54.77
2016-09-14T23:40:19.523Z,54.5
2016-09-14T23:41:19.480Z,54.31
2016-09-14T23:42:19.373Z,54.31
2016-09-14T23:43:19.425Z,54.41
2016-09-14T23:44:19.671Z,54.9
2016-09-14T23:45:19.846Z,54.02
2016-09-14T23:46:19.432Z,54.21
2016-09-14T23:47:19.277Z,54.21
2016-09-14T23:48:19.266Z,53.73
2016-09-14T23:49:19.656Z,54.11
2016-09-14T23:50:19.268Z,54.31
2016-09-14T23:51:19.209Z,54.48
2016-09-14T23:52:19.175Z,54.67
2016-09-14T23:53:19.213Z,54.19
2016-09-14T23:54:19.111Z,54.28
2016-09-14T23:55:33.815Z,54.19
2016-09-14T23:56:19.454Z,54.48
2016-09-14T23:57:19.213Z,54.19
2016-09-14T23:58:19.154Z,54.38
2016-09-14T23:59:19.018Z,54.19
